Time,TemperatureF,DewpointF,PressureIn,WindDirection,WindDirectionDegrees,WindSpeedMPH,WindSpeedGustMPH,Humidity,HourlyPrecipIn,Conditions,Clouds,dailyrainin,SoftwareType,DateUTC
2013-05-19 12:29:00,80.2,68.7,29.71,South,180,4.5,4.5,68,0.00,,,0.00,WUHU216EASYWX,2013-05-19 17:29:00,
2013-05-19 12:34:00,80.6,68.7,29.70,SE,135,4.5,4.5,67,0.00,,,0.00,WUHU216EASYWX,2013-05-19 17:34:00,
2013-05-19 12:39:00,80.8,68.4,29.70,SW,225,8.3,8.3,66,0.00,,,0.00,WUHU216EASYWX,2013-05-19 17:39:00,
2013-05-19 12:44:00,80.8,68.4,29.70,SW,225,8.3,13.0,66,0.00,,,0.00,WUHU216EASYWX,2013-05-19 17:44:00,
2013-05-19 12:49:00,81.1,68.7,29.70,SE,142,6.5,9.2,66,0.00,,,0.00,WUHU216EASYWX,2013-05-19 17:49:00,
2013-05-19 12:54:00,81.5,69.1,29.70,SW,225,4.5,4.5,66,0.00,,,0.00,WUHU216EASYWX,2013-05-19 17:54:00,
2013-05-19 12:59:00,81.1,67.8,29.69,SW,225,15.9,15.9,64,0.00,,,0.00,WUHU216EASYWX,2013-05-19 17:59:00,
2013-05-19 13:04:00,81.1,68.7,29.69,East,90,8.3,8.3,66,0.00,,,0.00,WUHU216EASYWX,2013-05-19 18:04:00,
2013-05-19 13:09:00,82.2,68.9,29.69,South,180,11.4,11.4,64,0.00,,,0.00,WUHU216EASYWX,2013-05-19 18:09:00,
2013-05-19 13:14:00,82.2,69.3,29.68,South,180,6.9,6.9,65,0.00,,,0.00,WUHU216EASYWX,2013-05-19 18:14:00,
2013-05-19 13:19:00,81.5,69.1,29.68,North,0,11.4,11.4,66,0.00,,,0.00,WUHU216EASYWX,2013-05-19 18:19:00,
2013-05-19 13:24:00,81.7,69.3,29.68,South,180,9.9,9.9,66,0.00,,,0.00,WUHU216EASYWX,2013-05-19 18:24:00,
2013-05-19 13:29:00,82.0,69.6,29.68,SW,225,3.1,3.1,66,0.00,,,0.00,WUHU216EASYWX,2013-05-19 18:29:00,
2013-05-19 13:34:00,82.6,69.3,29.68,West,270,8.3,8.3,64,0.00,,,0.00,WUHU216EASYWX,2013-05-19 18:34:00,
2013-05-19 13:39:00,82.4,69.4,29.67,South,180,7.6,7.6,65,0.00,,,0.00,WUHU216EASYWX,2013-05-19 18:39:00,
2013-05-19 13:44:00,82.2,69.3,29.67,East,90,9.2,9.2,65,0.00,,,0.00,WUHU216EASYWX,2013-05-19 18:44:00,
2013-05-19 13:49:00,82.0,69.1,29.67,SE,135,7.6,7.6,65,0.00,,,0.00,WUHU216EASYWX,2013-05-19 18:49:00,
2013-05-19 13:54:00,82.8,69.8,29.67,North,0,3.1,3.1,65,0.00,,,0.00,WUHU216EASYWX,2013-05-19 18:54:00,
2013-05-19 13:59:00,82.2,68.9,29.67,East,90,7.6,7.6,64,0.00,,,0.00,WUHU216EASYWX,2013-05-19 18:59:00,
2013-05-19 14:04:00,82.0,69.1,29.66,South,180,10.8,10.8,65,0.00,,,0.00,WUHU216EASYWX,2013-05-19 19:04:00,
2013-05-19 14:09:00,81.9,69.1,29.66,SE,135,9.2,9.2,65,0.00,,,0.00,WUHU216EASYWX,2013-05-19 19:09:00,
2013-05-19 14:14:00,82.6,69.3,29.66,SE,135,5.4,5.4,64,0.00,,,0.00,WUHU216EASYWX,2013-05-19 19:14:00,
2013-05-19 14:19:00,82.2,69.3,29.66,SW,225,8.3,8.3,65,0.00,,,0.00,WUHU216EASYWX,2013-05-19 19:19:00,
2013-05-19 14:24:00,82.2,69.8,29.66,North,0,6.9,6.9,66,0.00,,,0.00,WUHU216EASYWX,2013-05-19 19:24:00,
2013-05-19 14:29:00,82.4,69.4,29.66,SW,225,6.9,6.9,65,0.00,,,0.00,WUHU216EASYWX,2013-05-19 19:29:00,
2013-05-19 14:34:00,82.6,69.6,29.66,NW,315,7.6,7.6,65,0.00,,,0.00,WUHU216EASYWX,2013-05-19 19:34:00,
2013-05-19 14:39:00,82.6,70.2,29.66,SE,135,3.1,3.1,66,0.00,,,0.00,WUHU216EASYWX,2013-05-19 19:39:00,
2013-05-19 14:44:00,82.6,70.2,29.66,South,180,6.0,6.0,66,0.00,,,0.00,WUHU216EASYWX,2013-05-19 19:44:00,
2013-05-19 14:49:00,82.6,70.2,29.67,SW,225,6.9,6.9,66,0.00,,,0.00,WUHU216EASYWX,2013-05-19 19:49:00,
2013-05-19 14:54:00,82.4,70.0,29.66,West,270,4.5,4.5,66,0.00,,,0.00,WUHU216EASYWX,2013-05-19 19:54:00,
2013-05-19 14:59:00,82.4,70.0,29.66,SW,225,8.3,8.3,66,0.00,,,0.00,WUHU216EASYWX,2013-05-19 19:59:00,
2013-05-19 15:04:00,82.6,70.2,29.66,South,180,6.0,6.0,66,0.00,,,0.00,WUHU216EASYWX,2013-05-19 20:04:00,
2013-05-19 15:09:00,83.1,70.2,29.66,SW,225,3.8,3.8,65,0.00,,,0.00,WUHU216EASYWX,2013-05-19 20:09:00,
2013-05-19 15:14:00,82.6,70.2,29.66,SW,225,4.5,4.5,66,0.00,,,0.00,WUHU216EASYWX,2013-05-19 20:14:00,
2013-05-19 15:19:00,82.2,69.8,29.66,South,180,12.1,12.1,66,0.00,,,0.00,WUHU216EASYWX,2013-05-19 20:19:00,
2013-05-19 15:24:00,82.6,70.2,29.66,SE,135,3.8,3.8,66,0.00,,,0.00,WUHU216EASYWX,2013-05-19 20:24:00,
2013-05-19 15:29:00,82.8,70.3,29.65,South,180,8.3,8.3,66,0.00,,,0.00,WUHU216EASYWX,2013-05-19 20:29:00,
2013-05-19 15:34:00,82.8,69.8,29.65,SE,135,5.4,5.4,65,0.00,,,0.00,WUHU216EASYWX,2013-05-19 20:34:00,
2013-05-19 15:39:00,82.6,70.2,29.66,South,180,7.6,7.6,66,0.00,,,0.00,WUHU216EASYWX,2013-05-19 20:39:00,
2013-05-19 15:44:00,82.2,69.8,29.65,SW,225,5.4,5.4,66,0.00,,,0.00,WUHU216EASYWX,2013-05-19 20:44:00,
2013-05-19 15:49:00,82.2,70.2,29.65,South,180,3.8,3.8,67,0.00,,,0.00,WUHU216EASYWX,2013-05-19 20:49:00,
2013-05-19 15:54:00,82.0,70.0,29.64,South,180,3.8,3.8,67,0.00,,,0.00,WUHU216EASYWX,2013-05-19 20:54:00,
2013-05-19 15:59:00,82.2,70.2,29.64,South,180,4.5,4.5,67,0.00,,,0.00,WUHU216EASYWX,2013-05-19 20:59:00,
2013-05-19 16:04:00,82.2,70.2,29.63,SW,225,6.9,6.9,67,0.00,,,0.00,WUHU216EASYWX,2013-05-19 21:04:00,
2013-05-19 16:09:00,82.9,70.5,29.63,NE,45,5.4,5.4,66,0.00,,,0.00,WUHU216EASYWX,2013-05-19 21:09:00,
2013-05-19 16:14:00,82.8,69.8,29.63,South,180,7.6,7.6,65,0.00,,,0.00,WUHU216EASYWX,2013-05-19 21:14:00,
2013-05-19 16:19:00,82.8,70.3,29.63,South,180,6.9,6.9,66,0.00,,,0.00,WUHU216EASYWX,2013-05-19 21:19:00,
2013-05-19 16:24:00,82.9,70.5,29.63,South,180,2.2,2.2,66,0.00,,,0.00,WUHU216EASYWX,2013-05-19 21:24:00,
2013-05-19 16:29:00,83.1,70.7,29.63,SW,225,2.2,2.2,66,0.00,,,0.00,WUHU216EASYWX,2013-05-19 21:29:00,
2013-05-19 16:34:00,83.1,71.1,29.64,South,180,4.5,4.5,67,0.00,,,0.00,WUHU216EASYWX,2013-05-19 21:34:00,
2013-05-19 16:47:00,82.6,70.5,29.63,SW,225,3.8,3.8,67,0.00,,,0.00,WUHU216EASYWX,2013-05-19 21:47:00,
2013-05-19 16:49:00,82.0,70.5,29.63,SW,225,5.4,5.4,68,0.00,,,0.00,WUHU216EASYWX,2013-05-19 21:49:00,
2013-05-19 16:54:00,81.9,70.3,29.64,South,180,6.0,6.0,68,0.00,,,0.00,WUHU216EASYWX,2013-05-19 21:54:00,
2013-05-19 17:04:00,81.7,69.8,29.62,SW,225,7.6,7.6,67,0.00,,,0.00,WUHU216EASYWX,2013-05-19 22:04:00,
2013-05-19 17:09:00,81.5,70.0,29.62,SE,135,2.2,2.2,68,0.00,,,0.00,WUHU216EASYWX,2013-05-19 22:09:00,
2013-05-19 17:22:00,81.3,69.8,29.62,South,180,6.0,6.0,68,0.00,,,0.00,WUHU216EASYWX,2013-05-19 22:22:00,
2013-05-19 17:26:00,81.0,69.4,29.61,SE,135,3.8,3.8,68,0.00,,,0.00,WUHU216EASYWX,2013-05-19 22:26:00,
2013-05-19 17:31:00,80.8,69.3,29.61,SE,135,7.6,7.6,68,0.00,,,0.00,WUHU216EASYWX,2013-05-19 22:31:00,
2013-05-19 17:36:00,80.8,69.3,29.62,SE,135,4.5,4.5,68,0.00,,,0.00,WUHU216EASYWX,2013-05-19 22:36:00,
2013-05-19 17:41:00,80.8,69.3,29.62,South,180,5.4,5.4,68,0.00,,,0.00,WUHU216EASYWX,2013-05-19 22:41:00,
2013-05-19 17:46:00,80.8,69.3,29.62,South,180,6.0,6.0,68,0.00,,,0.00,WUHU216EASYWX,2013-05-19 22:46:00,
2013-05-19 17:51:00,80.8,69.3,29.62,SE,135,8.3,8.3,68,0.00,,,0.00,WUHU216EASYWX,2013-05-19 22:51:00,
2013-05-19 17:56:00,80.8,69.3,29.62,SW,225,3.1,3.1,68,0.00,,,0.00,WUHU216EASYWX,2013-05-19 22:56:00,
2013-05-19 18:01:00,81.0,69.4,29.61,South,180,4.5,4.5,68,0.00,,,0.00,WUHU216EASYWX,2013-05-19 23:01:00,
2013-05-19 18:06:00,81.0,69.4,29.60,SE,135,3.8,3.8,68,0.00,,,0.00,WUHU216EASYWX,2013-05-19 23:06:00,
2013-05-19 18:11:00,80.8,69.3,29.61,South,180,5.4,5.4,68,0.00,,,0.00,WUHU216EASYWX,2013-05-19 23:11:00,
2013-05-19 18:16:00,80.8,68.9,29.60,South,180,6.9,6.9,67,0.00,,,0.00,WUHU216EASYWX,2013-05-19 23:16:00,
2013-05-19 18:21:00,81.0,69.1,29.60,SE,135,4.5,4.5,67,0.00,,,0.00,WUHU216EASYWX,2013-05-19 23:21:00,
2013-05-19 18:26:00,81.0,68.5,29.59,SW,225,6.0,6.0,66,0.00,,,0.00,WUHU216EASYWX,2013-05-19 23:26:00,
2013-05-19 18:31:00,81.0,68.5,29.57,SE,135,6.9,6.9,66,0.00,,,0.00,WUHU216EASYWX,2013-05-19 23:31:00,
2013-05-19 18:36:00,81.0,68.5,29.59,SW,225,7.6,7.6,66,0.00,,,0.00,WUHU216EASYWX,2013-05-19 23:36:00,
2013-05-19 18:41:00,81.1,68.4,29.58,SW,225,10.8,10.8,65,0.00,,,0.00,WUHU216EASYWX,2013-05-19 23:41:00,
2013-05-19 18:46:00,81.3,68.0,29.58,SW,225,12.1,12.1,64,0.00,,,0.00,WUHU216EASYWX,2013-05-19 23:46:00,
2013-05-19 18:51:00,81.5,68.2,29.57,SE,135,7.6,7.6,64,0.00,,,0.00,WUHU216EASYWX,2013-05-19 23:51:00,
2013-05-19 18:56:00,81.5,68.2,29.60,East,90,4.5,4.5,64,0.00,,,0.00,WUHU216EASYWX,2013-05-19 23:56:00,
2013-05-19 19:01:00,81.7,68.4,29.62,SW,225,3.1,3.1,64,0.00,,,0.00,WUHU216EASYWX,2013-05-20 00:01:00,
2013-05-19 19:06:00,81.7,68.4,29.62,SW,225,4.5,4.5,64,0.00,,,0.00,WUHU216EASYWX,2013-05-20 00:06:00,
2013-05-19 19:11:00,81.7,68.4,29.62,SW,225,4.5,4.5,64,0.00,,,0.00,WUHU216EASYWX,2013-05-20 00:11:00,
2013-05-19 19:16:00,81.5,68.7,29.65,West,270,5.4,5.4,65,0.00,,,0.00,WUHU216EASYWX,2013-05-20 00:16:00,
2013-05-19 19:21:00,81.5,68.7,29.64,South,180,5.4,5.4,65,0.00,,,0.00,WUHU216EASYWX,2013-05-20 00:21:00,
2013-05-19 19:26:00,81.7,68.4,29.64,SW,225,6.9,6.9,64,0.00,,,0.00,WUHU216EASYWX,2013-05-20 00:26:00,
2013-05-19 19:31:00,81.7,68.4,29.64,SW,225,4.5,4.5,64,0.00,,,0.00,WUHU216EASYWX,2013-05-20 00:31:00,
2013-05-19 19:36:00,81.9,68.0,29.65,SW,225,8.3,8.3,63,0.00,,,0.00,WUHU216EASYWX,2013-05-20 00:36:00,
2013-05-19 19:41:00,81.9,67.6,29.65,South,180,4.5,4.5,62,0.00,,,0.00,WUHU216EASYWX,2013-05-20 00:41:00,
2013-05-19 19:46:00,82.0,67.8,29.64,West,270,5.4,5.4,62,0.00,,,0.00,WUHU216EASYWX,2013-05-20 00:46:00,
2013-05-19 19:51:00,82.0,67.8,29.60,SE,135,6.9,6.9,62,0.00,,,0.00,WUHU216EASYWX,2013-05-20 00:51:00,
2013-05-19 19:56:00,82.0,67.8,29.65,South,180,5.4,5.4,62,0.00,,,0.00,WUHU216EASYWX,2013-05-20 00:56:00,
2013-05-19 20:01:00,82.2,68.0,29.66,SW,225,6.0,6.0,62,0.00,,,0.00,WUHU216EASYWX,2013-05-20 01:01:00,
2013-05-19 20:06:00,82.0,67.8,29.66,South,180,4.5,4.5,62,0.00,,,0.00,WUHU216EASYWX,2013-05-20 01:06:00,
2013-05-19 20:11:00,82.0,67.8,29.65,South,180,6.0,6.0,62,0.00,,,0.00,WUHU216EASYWX,2013-05-20 01:11:00,
2013-05-19 20:16:00,82.0,67.8,29.65,West,270,5.4,5.4,62,0.00,,,0.00,WUHU216EASYWX,2013-05-20 01:16:00,
2013-05-19 20:21:00,82.0,67.8,29.65,SW,225,6.0,6.0,62,0.00,,,0.00,WUHU216EASYWX,2013-05-20 01:21:00,
2013-05-19 20:26:00,82.0,67.8,29.65,SW,225,6.0,6.0,62,0.00,,,0.00,WUHU216EASYWX,2013-05-20 01:26:00,
2013-05-19 20:31:00,81.0,68.5,29.65,South,180,4.5,4.5,66,0.00,,,0.00,WUHU216EASYWX,2013-05-20 01:31:00,
2013-05-19 20:36:00,79.9,69.6,29.64,South,180,4.5,4.5,71,0.00,,,0.00,WUHU216EASYWX,2013-05-20 01:36:00,
2013-05-19 20:41:00,78.6,70.2,29.63,SW,225,5.4,5.4,75,0.00,,,0.00,WUHU216EASYWX,2013-05-20 01:41:00,
2013-05-19 20:46:00,77.9,69.8,29.63,NW,315,3.8,3.8,76,0.00,,,0.00,WUHU216EASYWX,2013-05-20 01:46:00,
2013-05-19 20:51:00,77.5,69.4,29.62,SW,225,3.8,3.8,76,0.00,,,0.00,WUHU216EASYWX,2013-05-20 01:51:00,
2013-05-19 20:56:00,77.9,69.4,29.63,South,180,8.3,8.3,75,0.00,,,0.00,WUHU216EASYWX,2013-05-20 01:56:00,
2013-05-19 21:01:00,78.1,69.6,29.63,South,180,5.4,5.4,75,0.00,,,0.00,WUHU216EASYWX,2013-05-20 02:01:00,
2013-05-19 21:06:00,78.1,69.6,29.64,SE,135,8.3,8.3,75,0.00,,,0.00,WUHU216EASYWX,2013-05-20 02:06:00,
2013-05-19 21:11:00,77.4,68.9,29.64,South,180,6.9,6.9,75,0.00,,,0.00,WUHU216EASYWX,2013-05-20 02:11:00,
2013-05-19 21:17:00,76.8,67.1,29.63,South,180,9.2,9.2,72,0.00,,,0.00,WUHU216EASYWX,2013-05-20 02:17:00,
2013-05-19 21:22:00,76.8,67.1,29.63,South,180,1.6,1.6,72,0.00,,,0.00,WUHU216EASYWX,2013-05-20 02:22:00,
2013-05-19 21:28:00,76.6,67.5,29.63,South,180,8.3,8.3,73,0.00,,,0.00,WUHU216EASYWX,2013-05-20 02:28:00,
2013-05-19 21:33:00,76.6,67.5,29.64,South,180,6.9,6.9,73,0.00,,,0.00,WUHU216EASYWX,2013-05-20 02:33:00,
2013-05-19 21:38:00,76.6,67.5,29.63,South,180,6.0,6.0,73,0.00,,,0.00,WUHU216EASYWX,2013-05-20 02:38:00,
2013-05-19 21:43:00,76.8,67.6,29.63,South,180,3.1,3.1,73,0.00,,,0.00,WUHU216EASYWX,2013-05-20 02:43:00,
2013-05-19 21:48:00,77.0,67.3,29.62,East,90,0.7,0.7,72,0.00,,,0.00,WUHU216EASYWX,2013-05-20 02:48:00,
2013-05-19 21:53:00,77.2,67.5,29.63,SW,225,2.2,2.2,72,0.00,,,0.00,WUHU216EASYWX,2013-05-20 02:53:00,
2013-05-19 21:58:00,77.4,67.3,29.63,NW,315,1.6,1.6,71,0.00,,,0.00,WUHU216EASYWX,2013-05-20 02:58:00,
2013-05-19 22:03:00,77.5,67.5,29.63,SW,225,2.2,2.2,71,0.00,,,0.00,WUHU216EASYWX,2013-05-20 03:03:00,
2013-05-19 22:08:00,77.5,67.5,29.63,East,90,1.6,1.6,71,0.00,,,0.00,WUHU216EASYWX,2013-05-20 03:08:00,
2013-05-19 22:13:00,78.3,67.6,29.64,West,270,1.6,1.6,70,0.00,,,0.00,WUHU216EASYWX,2013-05-20 03:13:00,
2013-05-19 22:18:00,78.3,67.6,29.64,South,180,4.5,4.5,70,0.00,,,0.00,WUHU216EASYWX,2013-05-20 03:18:00,
2013-05-19 22:23:00,78.6,67.6,29.64,SW,225,5.4,5.4,69,0.00,,,0.00,WUHU216EASYWX,2013-05-20 03:23:00,
2013-05-19 22:28:00,78.8,67.8,29.64,SW,225,3.8,3.8,69,0.00,,,0.00,WUHU216EASYWX,2013-05-20 03:28:00,
2013-05-19 22:33:00,78.8,67.8,29.65,SE,135,1.6,1.6,69,0.00,,,0.00,WUHU216EASYWX,2013-05-20 03:33:00,
2013-05-19 22:38:00,79.2,67.8,29.65,SW,225,3.1,3.1,68,0.00,,,0.00,WUHU216EASYWX,2013-05-20 03:38:00,
2013-05-19 22:43:00,79.3,68.0,29.65,West,270,3.8,3.8,68,0.00,,,0.00,WUHU216EASYWX,2013-05-20 03:43:00,
2013-05-19 22:48:00,79.3,68.0,29.65,East,90,3.8,3.8,68,0.00,,,0.00,WUHU216EASYWX,2013-05-20 03:48:00,
2013-05-19 22:53:00,79.3,68.0,29.66,South,180,5.4,5.4,68,0.00,,,0.00,WUHU216EASYWX,2013-05-20 03:53:00,
2013-05-19 22:58:00,79.2,67.8,29.66,West,270,3.1,3.1,68,0.00,,,0.00,WUHU216EASYWX,2013-05-20 03:58:00,
2013-05-19 23:03:00,79.2,68.2,29.66,East,90,2.2,2.2,69,0.00,,,0.00,WUHU216EASYWX,2013-05-20 04:03:00,
2013-05-19 23:08:00,79.2,68.2,29.67,SW,225,2.2,2.2,69,0.00,,,0.00,WUHU216EASYWX,2013-05-20 04:08:00,
2013-05-19 23:13:00,79.2,67.8,29.67,SE,135,2.2,2.2,68,0.00,,,0.00,WUHU216EASYWX,2013-05-20 04:13:00,
2013-05-19 23:18:00,79.2,67.8,29.68,South,180,4.5,4.5,68,0.00,,,0.00,WUHU216EASYWX,2013-05-20 04:18:00,
2013-05-19 23:23:00,79.2,67.8,29.67,NW,315,4.5,4.5,68,0.00,,,0.00,WUHU216EASYWX,2013-05-20 04:23:00,
2013-05-19 23:28:00,79.2,67.8,29.67,SW,225,3.1,3.1,68,0.00,,,0.00,WUHU216EASYWX,2013-05-20 04:28:00,
2013-05-19 23:33:00,79.2,67.8,29.67,South,180,3.8,3.8,68,0.00,,,0.00,WUHU216EASYWX,2013-05-20 04:33:00,
2013-05-19 23:38:00,79.3,67.5,29.67,South,180,5.4,5.4,67,0.00,,,0.00,WUHU216EASYWX,2013-05-20 04:38:00,
2013-05-19 23:43:00,79.3,68.0,29.68,South,180,6.0,6.0,68,0.00,,,0.00,WUHU216EASYWX,2013-05-20 04:43:00,
2013-05-19 23:48:00,79.2,67.3,29.68,South,180,4.5,4.5,67,0.00,,,0.00,WUHU216EASYWX,2013-05-20 04:48:00,
2013-05-19 23:53:00,79.3,67.5,29.67,South,180,4.5,4.5,67,0.00,,,0.00,WUHU216EASYWX,2013-05-20 04:53:00,
2013-05-19 23:58:00,79.3,67.5,29.68,East,90,1.6,1.6,67,0.00,,,0.00,WUHU216EASYWX,2013-05-20 04:58:00,